sensor_id;sensor_type;location;lat;lon;timestamp;temperature;humidity
9847;DHT22;68671;50.084;8.794;2023-10-19T00:00:20;14.50;99.90
9847;DHT22;68671;50.084;8.794;2023-10-19T00:02:49;14.50;99.90
9847;DHT22;68671;50.084;8.794;2023-10-19T00:05:18;14.50;99.90
9847;DHT22;68671;50.084;8.794;2023-10-19T00:07:45;14.60;99.90
9847;DHT22;68671;50.084;8.794;2023-10-19T00:10:12;14.60;99.90
9847;DHT22;68671;50.084;8.794;2023-10-19T00:12:41;14.70;99.90
9847;DHT22;68671;50.084;8.794;2023-10-19T00:15:10;14.80;99.90
9847;DHT22;68671;50.084;8.794;2023-10-19T00:17:37;15.00;99.90
9847;DHT22;68671;50.084;8.794;2023-10-19T00:20:07;15.00;99.90
9847;DHT22;68671;50.084;8.794;2023-10-19T00:22:48;15.00;99.90
9847;DHT22;68671;50.084;8.794;2023-10-19T00:25:15;15.00;99.90
9847;DHT22;68671;50.084;8.794;2023-10-19T00:27:42;15.00;99.90
9847;DHT22;68671;50.084;8.794;2023-10-19T00:30:08;15.10;99.90
9847;DHT22;68671;50.084;8.794;2023-10-19T00:32:36;15.10;99.90
9847;DHT22;68671;50.084;8.794;2023-10-19T00:35:07;15.10;99.90
9847;DHT22;68671;50.084;8.794;2023-10-19T00:37:53;15.10;99.90
9847;DHT22;68671;50.084;8.794;2023-10-19T00:40:22;15.20;99.90
9847;DHT22;68671;50.084;8.794;2023-10-19T00:43:03;15.20;99.90
9847;DHT22;68671;50.084;8.794;2023-10-19T00:45:33;15.20;99.90
9847;DHT22;68671;50.084;8.794;2023-10-19T00:48:07;15.20;99.90
9847;DHT22;68671;50.084;8.794;2023-10-19T00:50:38;15.20;99.90
9847;DHT22;68671;50.084;8.794;2023-10-19T00:53:06;15.30;99.90
9847;DHT22;68671;50.084;8.794;2023-10-19T00:55:34;15.30;99.90
9847;DHT22;68671;50.084;8.794;2023-10-19T00:58:03;15.20;99.90
9847;DHT22;68671;50.084;8.794;2023-10-19T01:00:35;15.30;99.90
9847;DHT22;68671;50.084;8.794;2023-10-19T01:03:10;15.30;99.90
9847;DHT22;68671;50.084;8.794;2023-10-19T01:05:44;15.50;99.90
9847;DHT22;68671;50.084;8.794;2023-10-19T01:08:14;15.40;99.90
9847;DHT22;68671;50.084;8.794;2023-10-19T01:10:50;15.40;99.90
9847;DHT22;68671;50.084;8.794;2023-10-19T01:13:19;15.40;99.90
9847;DHT22;68671;50.084;8.794;2023-10-19T01:15:53;15.40;99.90
9847;DHT22;68671;50.084;8.794;2023-10-19T01:18:21;15.50;99.90
9847;DHT22;68671;50.084;8.794;2023-10-19T01:20:56;15.50;99.90
9847;DHT22;68671;50.084;8.794;2023-10-19T01:23:24;15.50;99.90
9847;DHT22;68671;50.084;8.794;2023-10-19T01:25:56;15.60;99.90
9847;DHT22;68671;50.084;8.794;2023-10-19T01:28:35;15.60;99.90
9847;DHT22;68671;50.084;8.794;2023-10-19T01:31:14;15.50;99.90
9847;DHT22;68671;50.084;8.794;2023-10-19T01:33:42;15.50;99.90
9847;DHT22;68671;50.084;8.794;2023-10-19T01:36:11;15.60;99.90
9847;DHT22;68671;50.084;8.794;2023-10-19T01:38:41;15.60;99.90
9847;DHT22;68671;50.084;8.794;2023-10-19T01:41:09;15.50;99.90
9847;DHT22;68671;50.084;8.794;2023-10-19T01:43:40;15.50;99.90
9847;DHT22;68671;50.084;8.794;2023-10-19T01:46:08;15.60;99.90
9847;DHT22;68671;50.084;8.794;2023-10-19T01:48:48;15.60;99.90
9847;DHT22;68671;50.084;8.794;2023-10-19T01:51:19;15.60;99.90
9847;DHT22;68671;50.084;8.794;2023-10-19T01:53:47;15.70;99.90
9847;DHT22;68671;50.084;8.794;2023-10-19T01:56:16;15.70;99.90
9847;DHT22;68671;50.084;8.794;2023-10-19T01:58:43;15.80;99.90
9847;DHT22;68671;50.084;8.794;2023-10-19T02:01:12;15.90;99.90
9847;DHT22;68671;50.084;8.794;2023-10-19T02:03:44;15.90;99.90
9847;DHT22;68671;50.084;8.794;2023-10-19T02:06:13;15.90;99.90
9847;DHT22;68671;50.084;8.794;2023-10-19T02:08:50;15.90;99.90
9847;DHT22;68671;50.084;8.794;2023-10-19T02:11:19;15.90;99.90
9847;DHT22;68671;50.084;8.794;2023-10-19T02:13:48;15.90;99.90
9847;DHT22;68671;50.084;8.794;2023-10-19T02:16:16;16.10;99.90
9847;DHT22;68671;50.084;8.794;2023-10-19T02:18:42;16.20;99.90
9847;DHT22;68671;50.084;8.794;2023-10-19T02:21:09;16.20;99.90
9847;DHT22;68671;50.084;8.794;2023-10-19T02:23:38;16.30;99.90
9847;DHT22;68671;50.084;8.794;2023-10-19T02:26:08;16.30;99.90
9847;DHT22;68671;50.084;8.794;2023-10-19T02:28:35;16.40;99.90
9847;DHT22;68671;50.084;8.794;2023-10-19T02:31:04;16.40;99.90
9847;DHT22;68671;50.084;8.794;2023-10-19T02:33:40;16.50;99.90
9847;DHT22;68671;50.084;8.794;2023-10-19T02:36:07;16.50;99.90
9847;DHT22;68671;50.084;8.794;2023-10-19T02:38:39;16.50;99.90
9847;DHT22;68671;50.084;8.794;2023-10-19T02:41:08;16.60;99.90
9847;DHT22;68671;50.084;8.794;2023-10-19T02:43:36;16.50;99.90
9847;DHT22;68671;50.084;8.794;2023-10-19T02:46:04;16.60;99.90
9847;DHT22;68671;50.084;8.794;2023-10-19T02:48:30;16.60;99.90
9847;DHT22;68671;50.084;8.794;2023-10-19T02:50:57;16.60;99.90
9847;DHT22;68671;50.084;8.794;2023-10-19T02:53:32;16.60;99.90
9847;DHT22;68671;50.084;8.794;2023-10-19T02:55:59;16.60;99.90
9847;DHT22;68671;50.084;8.794;2023-10-19T02:58:40;16.60;99.90
9847;DHT22;68671;50.084;8.794;2023-10-19T03:01:13;16.70;99.90
9847;DHT22;68671;50.084;8.794;2023-10-19T03:03:39;16.70;99.90
9847;DHT22;68671;50.084;8.794;2023-10-19T03:06:09;16.60;99.90
9847;DHT22;68671;50.084;8.794;2023-10-19T03:08:35;16.70;99.90
9847;DHT22;68671;50.084;8.794;2023-10-19T03:11:02;16.80;99.90
9847;DHT22;68671;50.084;8.794;2023-10-19T03:13:29;16.80;99.90
9847;DHT22;68671;50.084;8.794;2023-10-19T03:15:59;16.80;99.90
9847;DHT22;68671;50.084;8.794;2023-10-19T03:18:26;16.70;99.90
9847;DHT22;68671;50.084;8.794;2023-10-19T03:20:54;16.80;99.90
9847;DHT22;68671;50.084;8.794;2023-10-19T03:23:19;16.80;99.90
9847;DHT22;68671;50.084;8.794;2023-10-19T03:25:54;16.80;99.90
9847;DHT22;68671;50.084;8.794;2023-10-19T03:28:37;16.80;99.90
9847;DHT22;68671;50.084;8.794;2023-10-19T03:31:07;16.80;99.90
9847;DHT22;68671;50.084;8.794;2023-10-19T03:33:33;16.80;99.90
9847;DHT22;68671;50.084;8.794;2023-10-19T03:36:02;16.80;99.90
9847;DHT22;68671;50.084;8.794;2023-10-19T03:38:30;16.90;99.90
9847;DHT22;68671;50.084;8.794;2023-10-19T03:41:02;16.90;99.90
9847;DHT22;68671;50.084;8.794;2023-10-19T03:43:32;16.90;99.90
9847;DHT22;68671;50.084;8.794;2023-10-19T03:46:02;16.90;99.90
9847;DHT22;68671;50.084;8.794;2023-10-19T03:48:34;16.80;99.90
9847;DHT22;68671;50.084;8.794;2023-10-19T03:51:03;16.90;99.90
9847;DHT22;68671;50.084;8.794;2023-10-19T03:53:31;16.90;99.90
9847;DHT22;68671;50.084;8.794;2023-10-19T03:55:58;16.90;99.90
9847;DHT22;68671;50.084;8.794;2023-10-19T03:58:25;16.90;99.90
9847;DHT22;68671;50.084;8.794;2023-10-19T04:00:55;16.90;99.90
9847;DHT22;68671;50.084;8.794;2023-10-19T04:03:27;17.00;99.90
9847;DHT22;68671;50.084;8.794;2023-10-19T04:05:57;17.00;99.90
9847;DHT22;68671;50.084;8.794;2023-10-19T04:08:29;17.00;99.90
9847;DHT22;68671;50.084;8.794;2023-10-19T04:11:00;17.00;99.90
9847;DHT22;68671;50.084;8.794;2023-10-19T04:13:47;17.10;99.90
9847;DHT22;68671;50.084;8.794;2023-10-19T04:16:18;17.10;99.90
9847;DHT22;68671;50.084;8.794;2023-10-19T04:18:46;17.10;99.90
9847;DHT22;68671;50.084;8.794;2023-10-19T04:21:15;17.20;99.90
9847;DHT22;68671;50.084;8.794;2023-10-19T04:23:42;17.10;99.90
9847;DHT22;68671;50.084;8.794;2023-10-19T04:26:12;17.10;99.90
9847;DHT22;68671;50.084;8.794;2023-10-19T04:28:40;17.10;99.90
9847;DHT22;68671;50.084;8.794;2023-10-19T04:31:16;17.10;99.90
9847;DHT22;68671;50.084;8.794;2023-10-19T04:33:44;17.10;99.90
9847;DHT22;68671;50.084;8.794;2023-10-19T04:36:16;17.20;99.90
9847;DHT22;68671;50.084;8.794;2023-10-19T04:38:55;17.10;99.90
9847;DHT22;68671;50.084;8.794;2023-10-19T04:41:28;17.10;99.90
9847;DHT22;68671;50.084;8.794;2023-10-19T04:43:59;17.10;99.90
9847;DHT22;68671;50.084;8.794;2023-10-19T04:46:28;17.10;99.90
9847;DHT22;68671;50.084;8.794;2023-10-19T04:49:02;17.10;99.90
9847;DHT22;68671;50.084;8.794;2023-10-19T04:51:30;17.10;99.90
9847;DHT22;68671;50.084;8.794;2023-10-19T04:53:59;17.10;99.90
9847;DHT22;68671;50.084;8.794;2023-10-19T04:56:26;17.10;99.90
9847;DHT22;68671;50.084;8.794;2023-10-19T04:58:53;17.10;99.90
9847;DHT22;68671;50.084;8.794;2023-10-19T05:01:20;17.20;99.90
9847;DHT22;68671;50.084;8.794;2023-10-19T05:03:47;17.20;99.90
9847;DHT22;68671;50.084;8.794;2023-10-19T05:06:14;17.20;99.90
9847;DHT22;68671;50.084;8.794;2023-10-19T05:08:43;17.20;99.90
9847;DHT22;68671;50.084;8.794;2023-10-19T05:11:12;17.20;99.90
9847;DHT22;68671;50.084;8.794;2023-10-19T05:13:39;17.30;99.90
9847;DHT22;68671;50.084;8.794;2023-10-19T05:16:06;17.30;99.90
9847;DHT22;68671;50.084;8.794;2023-10-19T05:18:37;17.30;99.90
9847;DHT22;68671;50.084;8.794;2023-10-19T05:21:04;17.30;99.90
9847;DHT22;68671;50.084;8.794;2023-10-19T05:23:31;17.30;99.90
9847;DHT22;68671;50.084;8.794;2023-10-19T05:26:06;17.30;99.90
9847;DHT22;68671;50.084;8.794;2023-10-19T05:28:35;17.30;99.90
9847;DHT22;68671;50.084;8.794;2023-10-19T05:31:03;17.30;99.90
9847;DHT22;68671;50.084;8.794;2023-10-19T05:33:33;17.30;99.90
9847;DHT22;68671;50.084;8.794;2023-10-19T05:36:01;17.30;99.90
9847;DHT22;68671;50.084;8.794;2023-10-19T05:38:28;17.30;99.90
9847;DHT22;68671;50.084;8.794;2023-10-19T05:40:59;17.30;99.90
9847;DHT22;68671;50.084;8.794;2023-10-19T05:43:27;17.20;99.90
9847;DHT22;68671;50.084;8.794;2023-10-19T05:45:56;17.30;99.90
9847;DHT22;68671;50.084;8.794;2023-10-19T05:48:23;17.30;99.90
9847;DHT22;68671;50.084;8.794;2023-10-19T05:50:51;17.30;99.90
9847;DHT22;68671;50.084;8.794;2023-10-19T05:53:18;17.30;99.90
9847;DHT22;68671;50.084;8.794;2023-10-19T05:55:47;17.20;99.90
9847;DHT22;68671;50.084;8.794;2023-10-19T05:58:15;17.20;99.90
9847;DHT22;68671;50.084;8.794;2023-10-19T06:00:44;17.20;99.90
9847;DHT22;68671;50.084;8.794;2023-10-19T06:03:12;17.20;99.90
9847;DHT22;68671;50.084;8.794;2023-10-19T06:05:39;17.20;99.90
9847;DHT22;68671;50.084;8.794;2023-10-19T06:08:06;17.20;99.90
9847;DHT22;68671;50.084;8.794;2023-10-19T06:10:34;17.20;99.90
9847;DHT22;68671;50.084;8.794;2023-10-19T06:13:04;17.10;99.90
9847;DHT22;68671;50.084;8.794;2023-10-19T06:15:35;17.10;99.90
9847;DHT22;68671;50.084;8.794;2023-10-19T06:18:04;17.10;99.90
9847;DHT22;68671;50.084;8.794;2023-10-19T06:20:31;17.10;99.90
9847;DHT22;68671;50.084;8.794;2023-10-19T06:22:59;17.10;99.90
9847;DHT22;68671;50.084;8.794;2023-10-19T06:25:30;17.10;99.90
9847;DHT22;68671;50.084;8.794;2023-10-19T06:27:58;17.10;99.90
9847;DHT22;68671;50.084;8.794;2023-10-19T06:30:25;17.20;99.90
9847;DHT22;68671;50.084;8.794;2023-10-19T06:32:54;17.20;99.90
9847;DHT22;68671;50.084;8.794;2023-10-19T06:35:23;17.20;99.90
9847;DHT22;68671;50.084;8.794;2023-10-19T06:37:50;17.20;99.90
9847;DHT22;68671;50.084;8.794;2023-10-19T06:40:17;17.20;99.90
9847;DHT22;68671;50.084;8.794;2023-10-19T06:42:45;17.30;99.90
9847;DHT22;68671;50.084;8.794;2023-10-19T06:45:12;17.30;99.90
9847;DHT22;68671;50.084;8.794;2023-10-19T06:47:41;17.30;99.90
9847;DHT22;68671;50.084;8.794;2023-10-19T06:50:10;17.30;99.90
9847;DHT22;68671;50.084;8.794;2023-10-19T06:52:41;17.30;99.90
9847;DHT22;68671;50.084;8.794;2023-10-19T06:55:10;17.40;99.90
9847;DHT22;68671;50.084;8.794;2023-10-19T06:57:39;17.40;99.90
9847;DHT22;68671;50.084;8.794;2023-10-19T07:00:09;17.40;99.90
9847;DHT22;68671;50.084;8.794;2023-10-19T07:02:40;17.40;99.90
9847;DHT22;68671;50.084;8.794;2023-10-19T07:05:08;17.50;99.90
9847;DHT22;68671;50.084;8.794;2023-10-19T07:07:38;17.50;99.90
9847;DHT22;68671;50.084;8.794;2023-10-19T07:10:07;17.50;99.90
9847;DHT22;68671;50.084;8.794;2023-10-19T07:12:35;17.50;99.90
9847;DHT22;68671;50.084;8.794;2023-10-19T07:15:02;17.60;99.90
9847;DHT22;68671;50.084;8.794;2023-10-19T07:17:32;17.60;99.90
9847;DHT22;68671;50.084;8.794;2023-10-19T07:19:59;17.70;99.90
9847;DHT22;68671;50.084;8.794;2023-10-19T07:22:47;17.70;99.90
9847;DHT22;68671;50.084;8.794;2023-10-19T07:25:16;17.70;99.90
9847;DHT22;68671;50.084;8.794;2023-10-19T07:27:46;17.70;99.90
9847;DHT22;68671;50.084;8.794;2023-10-19T07:30:13;17.80;99.90
9847;DHT22;68671;50.084;8.794;2023-10-19T07:32:41;17.80;99.90
9847;DHT22;68671;50.084;8.794;2023-10-19T07:35:08;17.80;99.90
9847;DHT22;68671;50.084;8.794;2023-10-19T07:37:36;17.80;99.90
9847;DHT22;68671;50.084;8.794;2023-10-19T07:40:05;17.80;99.90
9847;DHT22;68671;50.084;8.794;2023-10-19T07:42:33;17.70;99.90
9847;DHT22;68671;50.084;8.794;2023-10-19T07:45:02;17.80;99.90
9847;DHT22;68671;50.084;8.794;2023-10-19T07:47:30;17.80;99.90
9847;DHT22;68671;50.084;8.794;2023-10-19T07:49:57;17.80;99.90
9847;DHT22;68671;50.084;8.794;2023-10-19T07:52:25;17.70;99.90
9847;DHT22;68671;50.084;8.794;2023-10-19T07:54:52;17.70;99.90
9847;DHT22;68671;50.084;8.794;2023-10-19T07:57:19;17.70;99.90
9847;DHT22;68671;50.084;8.794;2023-10-19T07:59:48;17.80;99.90
9847;DHT22;68671;50.084;8.794;2023-10-19T08:02:15;17.80;99.90
9847;DHT22;68671;50.084;8.794;2023-10-19T08:04:42;17.80;99.90
9847;DHT22;68671;50.084;8.794;2023-10-19T08:07:09;17.90;99.90
9847;DHT22;68671;50.084;8.794;2023-10-19T08:09:36;17.90;99.90
9847;DHT22;68671;50.084;8.794;2023-10-19T08:12:04;18.00;99.90
9847;DHT22;68671;50.084;8.794;2023-10-19T08:14:31;18.00;99.90
9847;DHT22;68671;50.084;8.794;2023-10-19T08:19:30;18.00;99.90
9847;DHT22;68671;50.084;8.794;2023-10-19T08:21:57;18.10;99.90
9847;DHT22;68671;50.084;8.794;2023-10-19T08:24:24;18.10;99.90
9847;DHT22;68671;50.084;8.794;2023-10-19T08:26:56;18.20;99.90
9847;DHT22;68671;50.084;8.794;2023-10-19T08:29:23;18.20;99.90
9847;DHT22;68671;50.084;8.794;2023-10-19T08:31:50;18.20;99.90
9847;DHT22;68671;50.084;8.794;2023-10-19T08:34:24;18.20;99.90
9847;DHT22;68671;50.084;8.794;2023-10-19T08:36:56;18.20;99.90
9847;DHT22;68671;50.084;8.794;2023-10-19T08:39:23;18.30;99.90
9847;DHT22;68671;50.084;8.794;2023-10-19T08:41:51;18.30;99.90
9847;DHT22;68671;50.084;8.794;2023-10-19T08:44:21;18.40;99.90
9847;DHT22;68671;50.084;8.794;2023-10-19T08:46:51;18.50;99.90
9847;DHT22;68671;50.084;8.794;2023-10-19T08:49:18;18.50;99.90
9847;DHT22;68671;50.084;8.794;2023-10-19T08:51:50;18.70;99.90
9847;DHT22;68671;50.084;8.794;2023-10-19T08:54:20;18.70;99.90
9847;DHT22;68671;50.084;8.794;2023-10-19T08:56:47;18.80;99.90
9847;DHT22;68671;50.084;8.794;2023-10-19T08:59:14;18.90;99.90
9847;DHT22;68671;50.084;8.794;2023-10-19T09:01:43;18.90;99.90
9847;DHT22;68671;50.084;8.794;2023-10-19T09:04:10;19.00;99.90
9847;DHT22;68671;50.084;8.794;2023-10-19T09:06:39;19.10;99.90
9847;DHT22;68671;50.084;8.794;2023-10-19T09:09:09;19.20;99.90
9847;DHT22;68671;50.084;8.794;2023-10-19T09:11:44;19.20;99.90
9847;DHT22;68671;50.084;8.794;2023-10-19T09:14:12;19.30;99.90
9847;DHT22;68671;50.084;8.794;2023-10-19T09:16:53;19.40;99.90
9847;DHT22;68671;50.084;8.794;2023-10-19T09:19:35;19.40;99.90
9847;DHT22;68671;50.084;8.794;2023-10-19T09:22:03;19.40;99.90
9847;DHT22;68671;50.084;8.794;2023-10-19T09:24:33;19.40;99.90
9847;DHT22;68671;50.084;8.794;2023-10-19T09:27:03;19.50;99.90
9847;DHT22;68671;50.084;8.794;2023-10-19T09:29:33;19.60;99.90
9847;DHT22;68671;50.084;8.794;2023-10-19T09:32:02;19.60;99.90
9847;DHT22;68671;50.084;8.794;2023-10-19T09:34:32;19.60;99.90
9847;DHT22;68671;50.084;8.794;2023-10-19T09:37:04;19.70;99.90
9847;DHT22;68671;50.084;8.794;2023-10-19T09:39:31;19.70;99.90
9847;DHT22;68671;50.084;8.794;2023-10-19T09:42:05;19.80;99.90
9847;DHT22;68671;50.084;8.794;2023-10-19T09:44:40;19.90;99.90
9847;DHT22;68671;50.084;8.794;2023-10-19T09:47:10;20.00;99.90
9847;DHT22;68671;50.084;8.794;2023-10-19T09:49:40;20.00;99.90
9847;DHT22;68671;50.084;8.794;2023-10-19T09:52:08;20.10;99.90
9847;DHT22;68671;50.084;8.794;2023-10-19T09:54:47;20.20;99.90
9847;DHT22;68671;50.084;8.794;2023-10-19T09:57:39;20.30;99.90
9847;DHT22;68671;50.084;8.794;2023-10-19T10:00:13;20.30;99.90
9847;DHT22;68671;50.084;8.794;2023-10-19T10:02:42;20.40;99.90
9847;DHT22;68671;50.084;8.794;2023-10-19T10:05:45;20.50;99.90
9847;DHT22;68671;50.084;8.794;2023-10-19T10:08:31;20.60;99.90
9847;DHT22;68671;50.084;8.794;2023-10-19T10:11:19;20.50;99.90
9847;DHT22;68671;50.084;8.794;2023-10-19T10:13:49;20.60;99.90
9847;DHT22;68671;50.084;8.794;2023-10-19T10:16:21;20.60;99.90
9847;DHT22;68671;50.084;8.794;2023-10-19T10:18:48;20.60;99.90
9847;DHT22;68671;50.084;8.794;2023-10-19T10:21:17;20.80;99.90
9847;DHT22;68671;50.084;8.794;2023-10-19T10:23:48;20.80;99.90
9847;DHT22;68671;50.084;8.794;2023-10-19T10:26:16;20.80;99.90
9847;DHT22;68671;50.084;8.794;2023-10-19T10:28:48;20.80;99.90
9847;DHT22;68671;50.084;8.794;2023-10-19T10:31:19;20.80;99.90
9847;DHT22;68671;50.084;8.794;2023-10-19T10:33:49;20.70;99.90
9847;DHT22;68671;50.084;8.794;2023-10-19T10:36:18;20.70;99.90
9847;DHT22;68671;50.084;8.794;2023-10-19T10:38:46;20.70;99.90
9847;DHT22;68671;50.084;8.794;2023-10-19T10:41:20;20.70;99.90
9847;DHT22;68671;50.084;8.794;2023-10-19T10:43:50;20.70;99.90
9847;DHT22;68671;50.084;8.794;2023-10-19T10:46:19;20.70;99.90
9847;DHT22;68671;50.084;8.794;2023-10-19T10:48:46;20.70;99.90
9847;DHT22;68671;50.084;8.794;2023-10-19T10:51:18;20.70;99.90
9847;DHT22;68671;50.084;8.794;2023-10-19T10:53:47;20.70;99.90
9847;DHT22;68671;50.084;8.794;2023-10-19T10:56:15;20.70;99.90
9847;DHT22;68671;50.084;8.794;2023-10-19T10:58:42;20.70;99.90
9847;DHT22;68671;50.084;8.794;2023-10-19T11:01:10;20.80;99.90
9847;DHT22;68671;50.084;8.794;2023-10-19T11:03:38;20.90;99.90
9847;DHT22;68671;50.084;8.794;2023-10-19T11:06:06;20.90;99.90
9847;DHT22;68671;50.084;8.794;2023-10-19T11:08:35;21.00;99.90
9847;DHT22;68671;50.084;8.794;2023-10-19T11:11:04;21.00;99.90
9847;DHT22;68671;50.084;8.794;2023-10-19T11:13:31;20.90;99.90
9847;DHT22;68671;50.084;8.794;2023-10-19T11:16:04;20.90;99.90
9847;DHT22;68671;50.084;8.794;2023-10-19T11:18:35;20.90;99.90
9847;DHT22;68671;50.084;8.794;2023-10-19T11:21:07;21.00;99.90
9847;DHT22;68671;50.084;8.794;2023-10-19T11:23:39;21.10;99.90
9847;DHT22;68671;50.084;8.794;2023-10-19T11:26:08;21.20;99.90
9847;DHT22;68671;50.084;8.794;2023-10-19T11:28:36;21.20;99.90
9847;DHT22;68671;50.084;8.794;2023-10-19T11:31:16;21.20;99.90
9847;DHT22;68671;50.084;8.794;2023-10-19T11:33:46;21.20;99.90
9847;DHT22;68671;50.084;8.794;2023-10-19T11:36:14;21.20;99.90
9847;DHT22;68671;50.084;8.794;2023-10-19T11:38:43;21.20;99.90
9847;DHT22;68671;50.084;8.794;2023-10-19T11:41:10;21.10;99.90
9847;DHT22;68671;50.084;8.794;2023-10-19T11:43:39;21.10;99.90
9847;DHT22;68671;50.084;8.794;2023-10-19T11:46:06;21.00;99.90
9847;DHT22;68671;50.084;8.794;2023-10-19T11:48:34;20.90;99.90
9847;DHT22;68671;50.084;8.794;2023-10-19T11:51:03;20.90;99.90
9847;DHT22;68671;50.084;8.794;2023-10-19T11:53:35;20.80;99.90
9847;DHT22;68671;50.084;8.794;2023-10-19T11:56:04;20.60;99.90
9847;DHT22;68671;50.084;8.794;2023-10-19T11:58:31;20.50;99.90
9847;DHT22;68671;50.084;8.794;2023-10-19T12:01:00;20.40;99.90
9847;DHT22;68671;50.084;8.794;2023-10-19T12:03:28;20.30;99.90
9847;DHT22;68671;50.084;8.794;2023-10-19T12:05:56;20.20;99.90
9847;DHT22;68671;50.084;8.794;2023-10-19T12:08:25;20.10;99.90
9847;DHT22;68671;50.084;8.794;2023-10-19T12:10:52;20.10;99.90
9847;DHT22;68671;50.084;8.794;2023-10-19T12:13:19;20.10;99.90
9847;DHT22;68671;50.084;8.794;2023-10-19T12:15:46;20.10;99.90
9847;DHT22;68671;50.084;8.794;2023-10-19T12:18:18;20.20;99.90
9847;DHT22;68671;50.084;8.794;2023-10-19T12:20:46;20.30;99.90
9847;DHT22;68671;50.084;8.794;2023-10-19T12:23:14;20.40;99.90
9847;DHT22;68671;50.084;8.794;2023-10-19T12:25:42;20.50;99.90
9847;DHT22;68671;50.084;8.794;2023-10-19T12:28:09;20.50;99.90
9847;DHT22;68671;50.084;8.794;2023-10-19T12:30:41;20.60;99.90
9847;DHT22;68671;50.084;8.794;2023-10-19T12:33:08;20.60;99.90
9847;DHT22;68671;50.084;8.794;2023-10-19T12:35:38;20.70;99.90
9847;DHT22;68671;50.084;8.794;2023-10-19T12:38:15;20.70;99.90
9847;DHT22;68671;50.084;8.794;2023-10-19T12:40:45;20.70;99.90
9847;DHT22;68671;50.084;8.794;2023-10-19T12:43:13;20.80;99.90
9847;DHT22;68671;50.084;8.794;2023-10-19T12:45:39;20.80;99.90
9847;DHT22;68671;50.084;8.794;2023-10-19T12:48:07;20.90;99.90
9847;DHT22;68671;50.084;8.794;2023-10-19T12:50:37;20.90;99.90
9847;DHT22;68671;50.084;8.794;2023-10-19T12:53:04;20.80;99.90
9847;DHT22;68671;50.084;8.794;2023-10-19T12:55:32;20.80;99.90
9847;DHT22;68671;50.084;8.794;2023-10-19T12:58:01;20.80;99.90
9847;DHT22;68671;50.084;8.794;2023-10-19T13:00:35;20.80;99.90
9847;DHT22;68671;50.084;8.794;2023-10-19T13:03:11;20.70;99.90
9847;DHT22;68671;50.084;8.794;2023-10-19T13:05:42;20.60;99.90
9847;DHT22;68671;50.084;8.794;2023-10-19T13:08:11;20.70;99.90
9847;DHT22;68671;50.084;8.794;2023-10-19T13:10:41;20.70;99.90
9847;DHT22;68671;50.084;8.794;2023-10-19T13:13:11;20.70;99.90
9847;DHT22;68671;50.084;8.794;2023-10-19T13:15:40;20.70;99.90
9847;DHT22;68671;50.084;8.794;2023-10-19T13:18:08;20.70;99.90
9847;DHT22;68671;50.084;8.794;2023-10-19T13:20:36;20.70;99.90
9847;DHT22;68671;50.084;8.794;2023-10-19T13:23:06;20.70;99.90
9847;DHT22;68671;50.084;8.794;2023-10-19T13:25:37;20.70;99.90
9847;DHT22;68671;50.084;8.794;2023-10-19T13:28:14;20.70;99.90
9847;DHT22;68671;50.084;8.794;2023-10-19T13:30:45;20.70;99.90
9847;DHT22;68671;50.084;8.794;2023-10-19T13:33:14;20.80;99.90
9847;DHT22;68671;50.084;8.794;2023-10-19T13:35:42;20.80;99.90
9847;DHT22;68671;50.084;8.794;2023-10-19T13:38:10;20.90;99.90
9847;DHT22;68671;50.084;8.794;2023-10-19T13:40:37;20.90;99.90
9847;DHT22;68671;50.084;8.794;2023-10-19T13:43:05;20.80;99.90
9847;DHT22;68671;50.084;8.794;2023-10-19T13:45:35;20.80;99.90
9847;DHT22;68671;50.084;8.794;2023-10-19T13:48:03;20.80;99.90
9847;DHT22;68671;50.084;8.794;2023-10-19T13:50:31;20.80;99.90
9847;DHT22;68671;50.084;8.794;2023-10-19T13:52:59;20.80;99.90
9847;DHT22;68671;50.084;8.794;2023-10-19T13:55:28;20.90;99.90
9847;DHT22;68671;50.084;8.794;2023-10-19T13:57:55;20.80;99.90
9847;DHT22;68671;50.084;8.794;2023-10-19T14:00:23;20.90;99.90
9847;DHT22;68671;50.084;8.794;2023-10-19T14:02:52;20.90;99.90
9847;DHT22;68671;50.084;8.794;2023-10-19T14:05:19;20.90;99.90
9847;DHT22;68671;50.084;8.794;2023-10-19T14:07:50;20.90;99.90
9847;DHT22;68671;50.084;8.794;2023-10-19T14:10:17;20.90;99.90
9847;DHT22;68671;50.084;8.794;2023-10-19T14:12:46;20.80;99.90
9847;DHT22;68671;50.084;8.794;2023-10-19T14:15:14;20.70;99.90
9847;DHT22;68671;50.084;8.794;2023-10-19T14:17:41;20.70;99.90
9847;DHT22;68671;50.084;8.794;2023-10-19T14:20:11;20.70;99.90
9847;DHT22;68671;50.084;8.794;2023-10-19T14:22:42;20.70;99.90
9847;DHT22;68671;50.084;8.794;2023-10-19T14:25:09;20.70;99.90
9847;DHT22;68671;50.084;8.794;2023-10-19T14:27:42;20.70;99.90
9847;DHT22;68671;50.084;8.794;2023-10-19T14:30:11;20.70;99.90
9847;DHT22;68671;50.084;8.794;2023-10-19T14:32:40;20.70;99.90
9847;DHT22;68671;50.084;8.794;2023-10-19T14:35:08;20.60;99.90
9847;DHT22;68671;50.084;8.794;2023-10-19T14:37:39;20.60;99.90
9847;DHT22;68671;50.084;8.794;2023-10-19T14:40:08;20.60;99.90
9847;DHT22;68671;50.084;8.794;2023-10-19T14:42:37;20.50;99.90
9847;DHT22;68671;50.084;8.794;2023-10-19T14:45:07;20.50;99.90
9847;DHT22;68671;50.084;8.794;2023-10-19T14:47:36;20.40;99.90
9847;DHT22;68671;50.084;8.794;2023-10-19T14:50:09;20.40;99.90
9847;DHT22;68671;50.084;8.794;2023-10-19T14:52:38;20.40;99.90
9847;DHT22;68671;50.084;8.794;2023-10-19T14:55:06;20.40;99.90
9847;DHT22;68671;50.084;8.794;2023-10-19T14:57:33;20.30;99.90
9847;DHT22;68671;50.084;8.794;2023-10-19T15:00:00;20.20;99.90
9847;DHT22;68671;50.084;8.794;2023-10-19T15:02:35;20.20;99.90
9847;DHT22;68671;50.084;8.794;2023-10-19T15:05:02;20.10;99.90
9847;DHT22;68671;50.084;8.794;2023-10-19T15:07:30;20.10;99.90
9847;DHT22;68671;50.084;8.794;2023-10-19T15:10:00;20.10;99.90
9847;DHT22;68671;50.084;8.794;2023-10-19T15:12:28;20.00;99.90
9847;DHT22;68671;50.084;8.794;2023-10-19T15:14:55;20.00;99.90
9847;DHT22;68671;50.084;8.794;2023-10-19T15:17:23;20.00;99.90
9847;DHT22;68671;50.084;8.794;2023-10-19T15:19:51;20.00;99.90
9847;DHT22;68671;50.084;8.794;2023-10-19T15:22:18;20.00;99.90
9847;DHT22;68671;50.084;8.794;2023-10-19T15:24:45;19.90;99.90
9847;DHT22;68671;50.084;8.794;2023-10-19T15:27:18;19.90;99.90
9847;DHT22;68671;50.084;8.794;2023-10-19T15:29:45;19.90;99.90
9847;DHT22;68671;50.084;8.794;2023-10-19T15:32:12;19.90;99.90
9847;DHT22;68671;50.084;8.794;2023-10-19T15:34:41;19.80;99.90
9847;DHT22;68671;50.084;8.794;2023-10-19T15:37:08;19.70;99.90
9847;DHT22;68671;50.084;8.794;2023-10-19T15:39:35;19.70;99.90
9847;DHT22;68671;50.084;8.794;2023-10-19T15:42:02;19.70;99.90
9847;DHT22;68671;50.084;8.794;2023-10-19T15:44:35;19.70;99.90
9847;DHT22;68671;50.084;8.794;2023-10-19T15:47:02;19.70;99.90
9847;DHT22;68671;50.084;8.794;2023-10-19T15:49:35;19.70;99.90
9847;DHT22;68671;50.084;8.794;2023-10-19T15:52:02;19.70;99.90
9847;DHT22;68671;50.084;8.794;2023-10-19T15:54:29;19.70;99.90
9847;DHT22;68671;50.084;8.794;2023-10-19T15:56:56;19.70;99.90
9847;DHT22;68671;50.084;8.794;2023-10-19T15:59:23;19.60;99.90
9847;DHT22;68671;50.084;8.794;2023-10-19T16:01:52;19.60;99.90